Weather at Ilinden Military Barracks Heliport

Public forecast

Using degrees Celsius for public forecast. Weather courtesy of forecast.io.

Closest aviation weather report (METAR) to Ilinden Military Barracks Heliport

Closest report is Skopje International Airport, 9.7 nm (18.0 km) ESE.

2024/05/21 05:54 (retrieved 19 minutes ago)

LWSK 210554Z VRB01KT 9999 SCT030 21/17 Q1014 NOSIG

Closest aviation forecast (TAF) to Ilinden Military Barracks Heliport

Closest forecast is Skopje International Airport, 9.7 nm (18.0 km) ESE.

2024/05/21 06:38 (retrieved 0 seconds ago)

TAF LWSK 210525Z 2106/2206 VRB02KT 9999 SCT035 PROB40 TEMPO 2114/2120 15012KT TSRA SCT033CB BKN040